sensor_id;sensor_type;location;lat;lon;timestamp;P1;durP1;ratioP1;P2;durP2;ratioP2
7410;SDS011;3747;48.628;9.058;2023-12-20T00:00:26;1.13;;;0.73;;
7410;SDS011;3747;48.628;9.058;2023-12-20T00:02:53;0.80;;;0.60;;
7410;SDS011;3747;48.628;9.058;2023-12-20T00:05:19;0.70;;;0.67;;
7410;SDS011;3747;48.628;9.058;2023-12-20T00:07:46;0.57;;;0.53;;
7410;SDS011;3747;48.628;9.058;2023-12-20T00:10:13;0.53;;;0.53;;
7410;SDS011;3747;48.628;9.058;2023-12-20T00:12:39;0.50;;;0.50;;
7410;SDS011;3747;48.628;9.058;2023-12-20T00:15:06;0.40;;;0.40;;
7410;SDS011;3747;48.628;9.058;2023-12-20T00:17:35;0.50;;;0.50;;
7410;SDS011;3747;48.628;9.058;2023-12-20T00:20:02;0.50;;;0.40;;
7410;SDS011;3747;48.628;9.058;2023-12-20T00:22:29;0.70;;;0.47;;
7410;SDS011;3747;48.628;9.058;2023-12-20T00:24:55;0.70;;;0.47;;
7410;SDS011;3747;48.628;9.058;2023-12-20T00:27:22;0.40;;;0.40;;
7410;SDS011;3747;48.628;9.058;2023-12-20T00:29:49;0.50;;;0.40;;
7410;SDS011;3747;48.628;9.058;2023-12-20T00:32:15;0.80;;;0.70;;
7410;SDS011;3747;48.628;9.058;2023-12-20T00:34:44;0.80;;;0.30;;
7410;SDS011;3747;48.628;9.058;2023-12-20T00:37:11;0.80;;;0.50;;
7410;SDS011;3747;48.628;9.058;2023-12-20T00:39:37;0.40;;;0.40;;
7410;SDS011;3747;48.628;9.058;2023-12-20T00:42:04;0.80;;;0.50;;
7410;SDS011;3747;48.628;9.058;2023-12-20T00:44:31;0.40;;;0.40;;
7410;SDS011;3747;48.628;9.058;2023-12-20T00:46:58;0.73;;;0.43;;
7410;SDS011;3747;48.628;9.058;2023-12-20T00:49:24;0.50;;;0.50;;
7410;SDS011;3747;48.628;9.058;2023-12-20T00:51:52;0.53;;;0.50;;
7410;SDS011;3747;48.628;9.058;2023-12-20T00:54:19;0.50;;;0.50;;
7410;SDS011;3747;48.628;9.058;2023-12-20T00:56:46;0.77;;;0.60;;
7410;SDS011;3747;48.628;9.058;2023-12-20T00:59:12;0.63;;;0.47;;
7410;SDS011;3747;48.628;9.058;2023-12-20T01:01:39;0.33;;;0.30;;
7410;SDS011;3747;48.628;9.058;2023-12-20T01:04:07;0.50;;;0.50;;
7410;SDS011;3747;48.628;9.058;2023-12-20T01:06:33;0.50;;;0.43;;
7410;SDS011;3747;48.628;9.058;2023-12-20T01:09:01;0.60;;;0.60;;
7410;SDS011;3747;48.628;9.058;2023-12-20T01:11:28;1.13;;;0.67;;
7410;SDS011;3747;48.628;9.058;2023-12-20T01:13:55;0.83;;;0.80;;
7410;SDS011;3747;48.628;9.058;2023-12-20T01:16:22;0.53;;;0.53;;
7410;SDS011;3747;48.628;9.058;2023-12-20T01:18:48;1.07;;;0.73;;
7410;SDS011;3747;48.628;9.058;2023-12-20T01:21:15;1.27;;;0.80;;
7410;SDS011;3747;48.628;9.058;2023-12-20T01:23:42;2.97;;;0.80;;
7410;SDS011;3747;48.628;9.058;2023-12-20T01:26:10;0.60;;;0.60;;
7410;SDS011;3747;48.628;9.058;2023-12-20T01:28:37;0.80;;;0.80;;
7410;SDS011;3747;48.628;9.058;2023-12-20T01:31:04;0.83;;;0.83;;
7410;SDS011;3747;48.628;9.058;2023-12-20T01:33:31;1.10;;;0.77;;
7410;SDS011;3747;48.628;9.058;2023-12-20T01:35:57;1.07;;;0.90;;
7410;SDS011;3747;48.628;9.058;2023-12-20T01:38:24;0.80;;;0.80;;
7410;SDS011;3747;48.628;9.058;2023-12-20T01:40:51;0.90;;;0.70;;
7410;SDS011;3747;48.628;9.058;2023-12-20T01:43:19;1.90;;;0.80;;
7410;SDS011;3747;48.628;9.058;2023-12-20T01:45:45;1.27;;;1.00;;
7410;SDS011;3747;48.628;9.058;2023-12-20T01:48:13;0.73;;;0.73;;
7410;SDS011;3747;48.628;9.058;2023-12-20T01:50:42;1.77;;;0.80;;
7410;SDS011;3747;48.628;9.058;2023-12-20T01:53:11;0.77;;;0.77;;
7410;SDS011;3747;48.628;9.058;2023-12-20T01:55:39;0.70;;;0.70;;
7410;SDS011;3747;48.628;9.058;2023-12-20T01:58:06;1.70;;;1.17;;
7410;SDS011;3747;48.628;9.058;2023-12-20T02:00:36;0.80;;;0.80;;
7410;SDS011;3747;48.628;9.058;2023-12-20T02:03:03;1.17;;;1.10;;
7410;SDS011;3747;48.628;9.058;2023-12-20T02:05:31;1.17;;;1.07;;
7410;SDS011;3747;48.628;9.058;2023-12-20T02:07:58;1.10;;;1.00;;
7410;SDS011;3747;48.628;9.058;2023-12-20T02:10:25;0.80;;;0.63;;
7410;SDS011;3747;48.628;9.058;2023-12-20T02:12:52;1.97;;;0.80;;
7410;SDS011;3747;48.628;9.058;2023-12-20T02:15:19;0.60;;;0.60;;
7410;SDS011;3747;48.628;9.058;2023-12-20T02:17:47;1.27;;;0.70;;
7410;SDS011;3747;48.628;9.058;2023-12-20T02:20:15;0.60;;;0.60;;
7410;SDS011;3747;48.628;9.058;2023-12-20T02:22:43;0.90;;;0.50;;
7410;SDS011;3747;48.628;9.058;2023-12-20T02:25:09;0.63;;;0.60;;
7410;SDS011;3747;48.628;9.058;2023-12-20T02:27:36;0.73;;;0.60;;
7410;SDS011;3747;48.628;9.058;2023-12-20T02:30:03;0.50;;;0.50;;
7410;SDS011;3747;48.628;9.058;2023-12-20T02:32:31;0.50;;;0.50;;
7410;SDS011;3747;48.628;9.058;2023-12-20T02:34:57;1.03;;;0.70;;
7410;SDS011;3747;48.628;9.058;2023-12-20T02:37:24;0.50;;;0.50;;
7410;SDS011;3747;48.628;9.058;2023-12-20T02:39:52;0.50;;;0.50;;
7410;SDS011;3747;48.628;9.058;2023-12-20T02:42:19;0.50;;;0.50;;
7410;SDS011;3747;48.628;9.058;2023-12-20T02:44:45;0.50;;;0.50;;
7410;SDS011;3747;48.628;9.058;2023-12-20T02:47:12;0.50;;;0.50;;
7410;SDS011;3747;48.628;9.058;2023-12-20T02:49:39;3.67;;;3.03;;
7410;SDS011;3747;48.628;9.058;2023-12-20T02:52:05;0.40;;;0.40;;
7410;SDS011;3747;48.628;9.058;2023-12-20T02:54:32;1.60;;;0.60;;
7410;SDS011;3747;48.628;9.058;2023-12-20T02:57:00;1.07;;;0.50;;
7410;SDS011;3747;48.628;9.058;2023-12-20T02:59:27;0.50;;;0.50;;
7410;SDS011;3747;48.628;9.058;2023-12-20T03:01:53;0.57;;;0.43;;
7410;SDS011;3747;48.628;9.058;2023-12-20T03:04:20;0.40;;;0.40;;
7410;SDS011;3747;48.628;9.058;2023-12-20T03:06:47;0.50;;;0.50;;
7410;SDS011;3747;48.628;9.058;2023-12-20T03:09:13;0.40;;;0.40;;
7410;SDS011;3747;48.628;9.058;2023-12-20T03:11:40;0.40;;;0.40;;
7410;SDS011;3747;48.628;9.058;2023-12-20T03:14:08;0.97;;;0.67;;
7410;SDS011;3747;48.628;9.058;2023-12-20T03:16:34;0.77;;;0.37;;
7410;SDS011;3747;48.628;9.058;2023-12-20T03:19:01;0.40;;;0.40;;
7410;SDS011;3747;48.628;9.058;2023-12-20T03:21:28;0.90;;;0.30;;
7410;SDS011;3747;48.628;9.058;2023-12-20T03:23:55;0.40;;;0.40;;
7410;SDS011;3747;48.628;9.058;2023-12-20T03:26:21;0.40;;;0.40;;
7410;SDS011;3747;48.628;9.058;2023-12-20T03:28:48;0.47;;;0.43;;
7410;SDS011;3747;48.628;9.058;2023-12-20T03:31:16;0.83;;;0.30;;
7410;SDS011;3747;48.628;9.058;2023-12-20T03:33:43;0.50;;;0.40;;
7410;SDS011;3747;48.628;9.058;2023-12-20T03:36:09;0.30;;;0.30;;
7410;SDS011;3747;48.628;9.058;2023-12-20T03:38:36;0.10;;;0.10;;
7410;SDS011;3747;48.628;9.058;2023-12-20T03:41:03;1.23;;;0.20;;
7410;SDS011;3747;48.628;9.058;2023-12-20T03:43:30;1.23;;;0.80;;
7410;SDS011;3747;48.628;9.058;2023-12-20T03:45:57;0.20;;;0.10;;
7410;SDS011;3747;48.628;9.058;2023-12-20T03:48:25;0.17;;;0.17;;
7410;SDS011;3747;48.628;9.058;2023-12-20T03:50:52;0.10;;;0.10;;
7410;SDS011;3747;48.628;9.058;2023-12-20T03:53:18;0.87;;;0.10;;
7410;SDS011;3747;48.628;9.058;2023-12-20T03:55:45;0.20;;;0.20;;
7410;SDS011;3747;48.628;9.058;2023-12-20T03:58:12;0.10;;;0.10;;
7410;SDS011;3747;48.628;9.058;2023-12-20T04:00:38;0.10;;;0.10;;
7410;SDS011;3747;48.628;9.058;2023-12-20T04:03:05;0.10;;;0.10;;
7410;SDS011;3747;48.628;9.058;2023-12-20T04:05:34;0.50;;;0.33;;
7410;SDS011;3747;48.628;9.058;2023-12-20T04:08:01;0.40;;;0.13;;
7410;SDS011;3747;48.628;9.058;2023-12-20T04:10:28;0.10;;;0.10;;
7410;SDS011;3747;48.628;9.058;2023-12-20T04:12:55;0.30;;;0.30;;
7410;SDS011;3747;48.628;9.058;2023-12-20T04:15:21;0.10;;;0.10;;
7410;SDS011;3747;48.628;9.058;2023-12-20T04:17:48;0.10;;;0.10;;
7410;SDS011;3747;48.628;9.058;2023-12-20T04:20:14;0.20;;;0.20;;
7410;SDS011;3747;48.628;9.058;2023-12-20T04:22:42;0.20;;;0.10;;
7410;SDS011;3747;48.628;9.058;2023-12-20T04:25:09;0.10;;;0.10;;
7410;SDS011;3747;48.628;9.058;2023-12-20T04:27:36;0.10;;;0.10;;
7410;SDS011;3747;48.628;9.058;2023-12-20T04:30:03;0.40;;;0.30;;
7410;SDS011;3747;48.628;9.058;2023-12-20T04:32:30;0.23;;;0.20;;
7410;SDS011;3747;48.628;9.058;2023-12-20T04:34:57;0.13;;;0.13;;
7410;SDS011;3747;48.628;9.058;2023-12-20T04:37:24;0.20;;;0.20;;
7410;SDS011;3747;48.628;9.058;2023-12-20T04:39:52;0.33;;;0.20;;
7410;SDS011;3747;48.628;9.058;2023-12-20T04:42:19;0.83;;;0.20;;
7410;SDS011;3747;48.628;9.058;2023-12-20T04:44:46;0.37;;;0.20;;
7410;SDS011;3747;48.628;9.058;2023-12-20T04:47:13;0.63;;;0.30;;
7410;SDS011;3747;48.628;9.058;2023-12-20T04:49:39;0.10;;;0.10;;
7410;SDS011;3747;48.628;9.058;2023-12-20T04:52:06;0.20;;;0.20;;
7410;SDS011;3747;48.628;9.058;2023-12-20T04:54:33;0.20;;;0.20;;
7410;SDS011;3747;48.628;9.058;2023-12-20T04:57:01;0.10;;;0.10;;
7410;SDS011;3747;48.628;9.058;2023-12-20T04:59:27;0.60;;;0.20;;
7410;SDS011;3747;48.628;9.058;2023-12-20T05:01:54;0.20;;;0.20;;
7410;SDS011;3747;48.628;9.058;2023-12-20T05:04:20;0.17;;;0.17;;
7410;SDS011;3747;48.628;9.058;2023-12-20T05:06:47;1.37;;;0.20;;
7410;SDS011;3747;48.628;9.058;2023-12-20T05:09:14;0.27;;;0.27;;
7410;SDS011;3747;48.628;9.058;2023-12-20T05:11:41;0.30;;;0.30;;
7410;SDS011;3747;48.628;9.058;2023-12-20T05:14:09;0.60;;;0.60;;
7410;SDS011;3747;48.628;9.058;2023-12-20T05:16:36;1.10;;;1.07;;
7410;SDS011;3747;48.628;9.058;2023-12-20T05:19:02;1.53;;;1.20;;
7410;SDS011;3747;48.628;9.058;2023-12-20T05:21:31;0.97;;;0.97;;
7410;SDS011;3747;48.628;9.058;2023-12-20T05:23:58;1.70;;;1.20;;
7410;SDS011;3747;48.628;9.058;2023-12-20T05:26:25;1.23;;;1.07;;
7410;SDS011;3747;48.628;9.058;2023-12-20T05:28:51;0.77;;;0.60;;
7410;SDS011;3747;48.628;9.058;2023-12-20T05:31:19;0.40;;;0.40;;
7410;SDS011;3747;48.628;9.058;2023-12-20T05:33:46;0.30;;;0.30;;
7410;SDS011;3747;48.628;9.058;2023-12-20T05:36:13;1.17;;;0.60;;
7410;SDS011;3747;48.628;9.058;2023-12-20T05:38:40;0.70;;;0.30;;
7410;SDS011;3747;48.628;9.058;2023-12-20T05:41:06;0.33;;;0.30;;
7410;SDS011;3747;48.628;9.058;2023-12-20T05:43:33;0.30;;;0.30;;
7410;SDS011;3747;48.628;9.058;2023-12-20T05:46:00;5.90;;;2.87;;
7410;SDS011;3747;48.628;9.058;2023-12-20T05:48:28;0.40;;;0.40;;
7410;SDS011;3747;48.628;9.058;2023-12-20T05:50:54;0.50;;;0.33;;
7410;SDS011;3747;48.628;9.058;2023-12-20T05:53:21;0.50;;;0.50;;
7410;SDS011;3747;48.628;9.058;2023-12-20T05:55:48;0.63;;;0.20;;
7410;SDS011;3747;48.628;9.058;2023-12-20T05:58:15;1.27;;;0.40;;
7410;SDS011;3747;48.628;9.058;2023-12-20T06:00:41;1.03;;;0.53;;
7410;SDS011;3747;48.628;9.058;2023-12-20T06:03:08;0.67;;;0.50;;
7410;SDS011;3747;48.628;9.058;2023-12-20T06:05:36;0.80;;;0.80;;
7410;SDS011;3747;48.628;9.058;2023-12-20T06:08:03;0.60;;;0.50;;
7410;SDS011;3747;48.628;9.058;2023-12-20T06:10:30;1.10;;;1.00;;
7410;SDS011;3747;48.628;9.058;2023-12-20T06:12:57;0.53;;;0.53;;
7410;SDS011;3747;48.628;9.058;2023-12-20T06:15:25;0.47;;;0.47;;
7410;SDS011;3747;48.628;9.058;2023-12-20T06:17:52;0.43;;;0.43;;
7410;SDS011;3747;48.628;9.058;2023-12-20T06:20:19;0.60;;;0.60;;
7410;SDS011;3747;48.628;9.058;2023-12-20T06:22:47;0.33;;;0.33;;
7410;SDS011;3747;48.628;9.058;2023-12-20T06:25:13;0.67;;;0.67;;
7410;SDS011;3747;48.628;9.058;2023-12-20T06:27:40;1.00;;;1.00;;
7410;SDS011;3747;48.628;9.058;2023-12-20T06:30:07;2.30;;;0.80;;
7410;SDS011;3747;48.628;9.058;2023-12-20T06:32:35;0.40;;;0.40;;
7410;SDS011;3747;48.628;9.058;2023-12-20T06:35:03;0.40;;;0.40;;
7410;SDS011;3747;48.628;9.058;2023-12-20T06:37:31;0.50;;;0.50;;
7410;SDS011;3747;48.628;9.058;2023-12-20T06:39:59;3.60;;;0.70;;
7410;SDS011;3747;48.628;9.058;2023-12-20T06:42:25;0.63;;;0.63;;
7410;SDS011;3747;48.628;9.058;2023-12-20T06:44:52;0.70;;;0.60;;
7410;SDS011;3747;48.628;9.058;2023-12-20T06:47:19;0.67;;;0.60;;
7410;SDS011;3747;48.628;9.058;2023-12-20T06:49:45;0.70;;;0.70;;
7410;SDS011;3747;48.628;9.058;2023-12-20T06:52:12;0.70;;;0.70;;
7410;SDS011;3747;48.628;9.058;2023-12-20T06:54:39;0.40;;;0.40;;
7410;SDS011;3747;48.628;9.058;2023-12-20T06:57:07;1.53;;;0.70;;
7410;SDS011;3747;48.628;9.058;2023-12-20T06:59:37;0.90;;;0.90;;
7410;SDS011;3747;48.628;9.058;2023-12-20T07:02:05;0.57;;;0.57;;
7410;SDS011;3747;48.628;9.058;2023-12-20T07:04:32;0.70;;;0.70;;
7410;SDS011;3747;48.628;9.058;2023-12-20T07:06:58;0.50;;;0.50;;
7410;SDS011;3747;48.628;9.058;2023-12-20T07:09:25;0.43;;;0.43;;
7410;SDS011;3747;48.628;9.058;2023-12-20T07:11:52;0.73;;;0.43;;
7410;SDS011;3747;48.628;9.058;2023-12-20T07:14:20;0.30;;;0.30;;
7410;SDS011;3747;48.628;9.058;2023-12-20T07:16:47;0.60;;;0.60;;
7410;SDS011;3747;48.628;9.058;2023-12-20T07:19:13;2.93;;;1.70;;
7410;SDS011;3747;48.628;9.058;2023-12-20T07:21:40;0.40;;;0.40;;
7410;SDS011;3747;48.628;9.058;2023-12-20T07:24:07;0.50;;;0.50;;
7410;SDS011;3747;48.628;9.058;2023-12-20T07:26:34;0.53;;;0.53;;
7410;SDS011;3747;48.628;9.058;2023-12-20T07:29:02;0.73;;;0.70;;
7410;SDS011;3747;48.628;9.058;2023-12-20T07:31:30;0.67;;;0.60;;
7410;SDS011;3747;48.628;9.058;2023-12-20T07:33:57;0.50;;;0.50;;
7410;SDS011;3747;48.628;9.058;2023-12-20T07:36:24;0.40;;;0.40;;
7410;SDS011;3747;48.628;9.058;2023-12-20T07:38:50;1.30;;;1.27;;
7410;SDS011;3747;48.628;9.058;2023-12-20T07:41:17;0.70;;;0.70;;
7410;SDS011;3747;48.628;9.058;2023-12-20T07:43:46;1.10;;;0.60;;
7410;SDS011;3747;48.628;9.058;2023-12-20T07:46:12;0.40;;;0.40;;
7410;SDS011;3747;48.628;9.058;2023-12-20T07:48:40;2.10;;;0.90;;
7410;SDS011;3747;48.628;9.058;2023-12-20T07:51:07;1.20;;;1.10;;
7410;SDS011;3747;48.628;9.058;2023-12-20T07:53:34;1.00;;;1.00;;
7410;SDS011;3747;48.628;9.058;2023-12-20T07:56:02;1.00;;;1.00;;
7410;SDS011;3747;48.628;9.058;2023-12-20T07:58:39;1.43;;;1.33;;
7410;SDS011;3747;48.628;9.058;2023-12-20T08:01:05;0.87;;;0.87;;
7410;SDS011;3747;48.628;9.058;2023-12-20T08:03:32;1.13;;;0.97;;
7410;SDS011;3747;48.628;9.058;2023-12-20T08:06:00;3.00;;;2.23;;
7410;SDS011;3747;48.628;9.058;2023-12-20T08:08:28;1.67;;;1.00;;
7410;SDS011;3747;48.628;9.058;2023-12-20T08:10:54;1.03;;;1.00;;
7410;SDS011;3747;48.628;9.058;2023-12-20T08:13:22;1.20;;;1.10;;
7410;SDS011;3747;48.628;9.058;2023-12-20T08:15:51;1.80;;;1.10;;
7410;SDS011;3747;48.628;9.058;2023-12-20T08:18:17;1.10;;;1.10;;
7410;SDS011;3747;48.628;9.058;2023-12-20T08:20:44;1.23;;;1.10;;
7410;SDS011;3747;48.628;9.058;2023-12-20T08:23:13;2.90;;;1.80;;
7410;SDS011;3747;48.628;9.058;2023-12-20T08:25:41;3.97;;;2.03;;
7410;SDS011;3747;48.628;9.058;2023-12-20T08:28:08;1.10;;;1.00;;
7410;SDS011;3747;48.628;9.058;2023-12-20T08:30:34;0.77;;;0.77;;
7410;SDS011;3747;48.628;9.058;2023-12-20T08:33:01;1.60;;;1.10;;
7410;SDS011;3747;48.628;9.058;2023-12-20T08:35:28;1.27;;;1.07;;
7410;SDS011;3747;48.628;9.058;2023-12-20T08:37:55;1.20;;;1.10;;
7410;SDS011;3747;48.628;9.058;2023-12-20T08:40:23;1.23;;;1.13;;
7410;SDS011;3747;48.628;9.058;2023-12-20T08:42:50;1.13;;;1.10;;
7410;SDS011;3747;48.628;9.058;2023-12-20T08:45:16;2.43;;;2.23;;
7410;SDS011;3747;48.628;9.058;2023-12-20T08:47:43;2.60;;;2.40;;
7410;SDS011;3747;48.628;9.058;2023-12-20T08:50:10;2.83;;;2.63;;
7410;SDS011;3747;48.628;9.058;2023-12-20T08:52:38;2.00;;;1.80;;
7410;SDS011;3747;48.628;9.058;2023-12-20T08:55:05;2.40;;;2.03;;
7410;SDS011;3747;48.628;9.058;2023-12-20T08:57:33;2.37;;;2.13;;
7410;SDS011;3747;48.628;9.058;2023-12-20T09:00:00;3.43;;;1.67;;
7410;SDS011;3747;48.628;9.058;2023-12-20T09:02:28;2.30;;;1.70;;
7410;SDS011;3747;48.628;9.058;2023-12-20T09:05:03;2.20;;;1.53;;
7410;SDS011;3747;48.628;9.058;2023-12-20T09:07:30;2.27;;;1.60;;
7410;SDS011;3747;48.628;9.058;2023-12-20T09:10:12;3.73;;;2.30;;
7410;SDS011;3747;48.628;9.058;2023-12-20T09:12:40;1.67;;;1.30;;
7410;SDS011;3747;48.628;9.058;2023-12-20T09:15:07;1.93;;;1.80;;
7410;SDS011;3747;48.628;9.058;2023-12-20T09:17:34;3.23;;;2.10;;
7410;SDS011;3747;48.628;9.058;2023-12-20T09:20:01;1.30;;;1.10;;
7410;SDS011;3747;48.628;9.058;2023-12-20T09:22:43;1.40;;;1.30;;
7410;SDS011;3747;48.628;9.058;2023-12-20T09:25:10;1.87;;;1.70;;
7410;SDS011;3747;48.628;9.058;2023-12-20T09:30:08;5.70;;;1.63;;
7410;SDS011;3747;48.628;9.058;2023-12-20T09:32:35;2.67;;;2.13;;
7410;SDS011;3747;48.628;9.058;2023-12-20T09:35:02;3.23;;;1.50;;
7410;SDS011;3747;48.628;9.058;2023-12-20T09:37:30;3.23;;;1.93;;
7410;SDS011;3747;48.628;9.058;2023-12-20T09:39:57;2.77;;;1.70;;
7410;SDS011;3747;48.628;9.058;2023-12-20T09:42:24;2.07;;;1.97;;
7410;SDS011;3747;48.628;9.058;2023-12-20T09:45:00;2.97;;;2.00;;
7410;SDS011;3747;48.628;9.058;2023-12-20T09:47:28;2.40;;;1.83;;
7410;SDS011;3747;48.628;9.058;2023-12-20T09:49:55;2.93;;;2.00;;
7410;SDS011;3747;48.628;9.058;2023-12-20T09:52:23;6.40;;;2.13;;
7410;SDS011;3747;48.628;9.058;2023-12-20T09:54:50;2.33;;;1.23;;
7410;SDS011;3747;48.628;9.058;2023-12-20T09:57:19;2.57;;;1.50;;
7410;SDS011;3747;48.628;9.058;2023-12-20T09:59:46;3.23;;;1.50;;
7410;SDS011;3747;48.628;9.058;2023-12-20T10:02:14;3.27;;;1.60;;
7410;SDS011;3747;48.628;9.058;2023-12-20T10:04:47;5.50;;;2.90;;
7410;SDS011;3747;48.628;9.058;2023-12-20T10:07:14;3.33;;;1.20;;
7410;SDS011;3747;48.628;9.058;2023-12-20T10:09:43;6.63;;;1.67;;
7410;SDS011;3747;48.628;9.058;2023-12-20T10:12:11;4.93;;;1.57;;
7410;SDS011;3747;48.628;9.058;2023-12-20T10:14:38;1.77;;;1.30;;
7410;SDS011;3747;48.628;9.058;2023-12-20T10:17:11;4.77;;;1.43;;
7410;SDS011;3747;48.628;9.058;2023-12-20T10:19:39;4.30;;;1.40;;
7410;SDS011;3747;48.628;9.058;2023-12-20T10:22:05;2.13;;;1.37;;
7410;SDS011;3747;48.628;9.058;2023-12-20T10:24:32;2.10;;;1.43;;
7410;SDS011;3747;48.628;9.058;2023-12-20T10:27:11;2.17;;;1.13;;
7410;SDS011;3747;48.628;9.058;2023-12-20T10:29:38;1.60;;;0.97;;
7410;SDS011;3747;48.628;9.058;2023-12-20T10:32:23;3.13;;;1.00;;
7410;SDS011;3747;48.628;9.058;2023-12-20T10:34:52;1.10;;;0.97;;
7410;SDS011;3747;48.628;9.058;2023-12-20T10:37:20;3.97;;;1.40;;
7410;SDS011;3747;48.628;9.058;2023-12-20T10:39:48;0.97;;;0.97;;
7410;SDS011;3747;48.628;9.058;2023-12-20T10:42:16;1.33;;;1.17;;
7410;SDS011;3747;48.628;9.058;2023-12-20T10:44:50;4.00;;;1.10;;
7410;SDS011;3747;48.628;9.058;2023-12-20T10:47:18;2.70;;;0.90;;
7410;SDS011;3747;48.628;9.058;2023-12-20T10:49:45;2.90;;;1.20;;
7410;SDS011;3747;48.628;9.058;2023-12-20T10:52:14;2.03;;;1.10;;
7410;SDS011;3747;48.628;9.058;2023-12-20T10:54:43;1.93;;;1.30;;
7410;SDS011;3747;48.628;9.058;2023-12-20T10:57:11;1.70;;;0.93;;
7410;SDS011;3747;48.628;9.058;2023-12-20T10:59:38;1.43;;;1.00;;
7410;SDS011;3747;48.628;9.058;2023-12-20T11:02:06;1.87;;;1.00;;
7410;SDS011;3747;48.628;9.058;2023-12-20T11:04:35;3.20;;;1.30;;
7410;SDS011;3747;48.628;9.058;2023-12-20T11:07:08;2.27;;;1.07;;
7410;SDS011;3747;48.628;9.058;2023-12-20T11:09:45;4.63;;;1.40;;
7410;SDS011;3747;48.628;9.058;2023-12-20T11:12:20;3.23;;;1.30;;
7410;SDS011;3747;48.628;9.058;2023-12-20T11:14:54;5.60;;;1.93;;
7410;SDS011;3747;48.628;9.058;2023-12-20T11:17:22;10.17;;;5.67;;
7410;SDS011;3747;48.628;9.058;2023-12-20T11:22:38;1.63;;;1.17;;
7410;SDS011;3747;48.628;9.058;2023-12-20T11:25:17;3.13;;;1.47;;
7410;SDS011;3747;48.628;9.058;2023-12-20T11:27:44;2.13;;;1.90;;
7410;SDS011;3747;48.628;9.058;2023-12-20T11:30:40;3.57;;;1.50;;
7410;SDS011;3747;48.628;9.058;2023-12-20T11:33:07;6.20;;;1.50;;
7410;SDS011;3747;48.628;9.058;2023-12-20T11:35:34;2.33;;;1.03;;
7410;SDS011;3747;48.628;9.058;2023-12-20T11:38:03;2.40;;;1.10;;
7410;SDS011;3747;48.628;9.058;2023-12-20T11:40:30;3.07;;;1.00;;
7410;SDS011;3747;48.628;9.058;2023-12-20T11:43:00;1.60;;;1.23;;
7410;SDS011;3747;48.628;9.058;2023-12-20T11:45:27;2.83;;;0.90;;
7410;SDS011;3747;48.628;9.058;2023-12-20T11:47:54;3.10;;;1.30;;
7410;SDS011;3747;48.628;9.058;2023-12-20T11:50:23;2.80;;;1.30;;
7410;SDS011;3747;48.628;9.058;2023-12-20T11:52:50;1.80;;;1.13;;
7410;SDS011;3747;48.628;9.058;2023-12-20T11:55:20;2.60;;;1.47;;
7410;SDS011;3747;48.628;9.058;2023-12-20T11:57:47;3.17;;;1.53;;
7410;SDS011;3747;48.628;9.058;2023-12-20T12:00:14;2.80;;;1.37;;
7410;SDS011;3747;48.628;9.058;2023-12-20T12:02:41;3.33;;;1.20;;
7410;SDS011;3747;48.628;9.058;2023-12-20T12:05:08;3.37;;;1.23;;
7410;SDS011;3747;48.628;9.058;2023-12-20T12:07:35;3.73;;;1.37;;
7410;SDS011;3747;48.628;9.058;2023-12-20T12:10:02;5.47;;;1.90;;
7410;SDS011;3747;48.628;9.058;2023-12-20T12:12:31;2.50;;;1.30;;
7410;SDS011;3747;48.628;9.058;2023-12-20T12:14:58;2.17;;;1.47;;
7410;SDS011;3747;48.628;9.058;2023-12-20T12:17:25;3.70;;;1.30;;
7410;SDS011;3747;48.628;9.058;2023-12-20T12:19:52;3.17;;;1.50;;
7410;SDS011;3747;48.628;9.058;2023-12-20T12:22:29;2.80;;;1.10;;
7410;SDS011;3747;48.628;9.058;2023-12-20T12:24:58;0.93;;;0.93;;
7410;SDS011;3747;48.628;9.058;2023-12-20T12:27:26;4.83;;;1.77;;
7410;SDS011;3747;48.628;9.058;2023-12-20T12:30:01;5.60;;;3.67;;
7410;SDS011;3747;48.628;9.058;2023-12-20T12:32:28;2.43;;;1.23;;
7410;SDS011;3747;48.628;9.058;2023-12-20T12:34:55;4.33;;;1.97;;
7410;SDS011;3747;48.628;9.058;2023-12-20T12:37:28;4.33;;;1.63;;
7410;SDS011;3747;48.628;9.058;2023-12-20T12:39:55;6.20;;;1.03;;
7410;SDS011;3747;48.628;9.058;2023-12-20T12:42:22;2.80;;;0.90;;
7410;SDS011;3747;48.628;9.058;2023-12-20T12:44:53;3.33;;;1.17;;
7410;SDS011;3747;48.628;9.058;2023-12-20T12:47:21;4.30;;;1.17;;
7410;SDS011;3747;48.628;9.058;2023-12-20T12:49:49;4.87;;;1.37;;
7410;SDS011;3747;48.628;9.058;2023-12-20T12:52:17;4.63;;;1.10;;
7410;SDS011;3747;48.628;9.058;2023-12-20T12:54:44;5.00;;;1.40;;
7410;SDS011;3747;48.628;9.058;2023-12-20T12:57:12;2.70;;;0.90;;
7410;SDS011;3747;48.628;9.058;2023-12-20T12:59:39;3.63;;;1.83;;
7410;SDS011;3747;48.628;9.058;2023-12-20T13:02:06;3.90;;;0.90;;
7410;SDS011;3747;48.628;9.058;2023-12-20T13:04:34;1.07;;;0.80;;
7410;SDS011;3747;48.628;9.058;2023-12-20T13:07:01;2.40;;;1.43;;
7410;SDS011;3747;48.628;9.058;2023-12-20T13:09:27;4.93;;;0.93;;
7410;SDS011;3747;48.628;9.058;2023-12-20T13:11:56;4.10;;;0.97;;
7410;SDS011;3747;48.628;9.058;2023-12-20T13:14:23;3.90;;;1.17;;
7410;SDS011;3747;48.628;9.058;2023-12-20T13:16:50;3.10;;;1.30;;
7410;SDS011;3747;48.628;9.058;2023-12-20T13:19:17;2.10;;;0.93;;
7410;SDS011;3747;48.628;9.058;2023-12-20T13:21:45;6.33;;;1.47;;
7410;SDS011;3747;48.628;9.058;2023-12-20T13:24:12;3.67;;;1.27;;
7410;SDS011;3747;48.628;9.058;2023-12-20T13:26:38;6.77;;;1.40;;
7410;SDS011;3747;48.628;9.058;2023-12-20T13:29:05;2.57;;;1.50;;
7410;SDS011;3747;48.628;9.058;2023-12-20T13:31:32;3.10;;;1.50;;
7410;SDS011;3747;48.628;9.058;2023-12-20T13:33:58;2.23;;;1.23;;
7410;SDS011;3747;48.628;9.058;2023-12-20T13:36:25;1.80;;;0.70;;
7410;SDS011;3747;48.628;9.058;2023-12-20T13:38:53;4.27;;;1.10;;
7410;SDS011;3747;48.628;9.058;2023-12-20T13:41:21;1.70;;;1.20;;
7410;SDS011;3747;48.628;9.058;2023-12-20T13:43:48;1.97;;;1.00;;
7410;SDS011;3747;48.628;9.058;2023-12-20T13:46:14;4.50;;;1.60;;
7410;SDS011;3747;48.628;9.058;2023-12-20T13:48:42;1.60;;;0.90;;
7410;SDS011;3747;48.628;9.058;2023-12-20T13:54:01;2.40;;;1.10;;
7410;SDS011;3747;48.628;9.058;2023-12-20T13:56:28;3.27;;;0.87;;
7410;SDS011;3747;48.628;9.058;2023-12-20T13:58:55;4.67;;;0.80;;
7410;SDS011;3747;48.628;9.058;2023-12-20T14:01:28;5.03;;;1.10;;
7410;SDS011;3747;48.628;9.058;2023-12-20T14:03:55;3.63;;;1.20;;
7410;SDS011;3747;48.628;9.058;2023-12-20T14:06:22;1.97;;;0.60;;
7410;SDS011;3747;48.628;9.058;2023-12-20T14:08:48;3.43;;;0.87;;
7410;SDS011;3747;48.628;9.058;2023-12-20T14:11:16;1.33;;;0.90;;
7410;SDS011;3747;48.628;9.058;2023-12-20T14:13:44;2.33;;;1.17;;
7410;SDS011;3747;48.628;9.058;2023-12-20T14:16:10;2.20;;;0.90;;
7410;SDS011;3747;48.628;9.058;2023-12-20T14:18:37;4.00;;;1.40;;
7410;SDS011;3747;48.628;9.058;2023-12-20T14:21:05;3.13;;;1.07;;
7410;SDS011;3747;48.628;9.058;2023-12-20T14:23:32;2.67;;;1.10;;
7410;SDS011;3747;48.628;9.058;2023-12-20T14:26:14;4.80;;;1.30;;
7410;SDS011;3747;48.628;9.058;2023-12-20T14:28:42;3.33;;;1.37;;
7410;SDS011;3747;48.628;9.058;2023-12-20T14:31:09;2.93;;;1.83;;
7410;SDS011;3747;48.628;9.058;2023-12-20T14:33:36;3.77;;;1.20;;
7410;SDS011;3747;48.628;9.058;2023-12-20T14:36:04;1.70;;;1.10;;
7410;SDS011;3747;48.628;9.058;2023-12-20T14:38:31;4.97;;;1.53;;
7410;SDS011;3747;48.628;9.058;2023-12-20T14:40:58;4.73;;;2.47;;
7410;SDS011;3747;48.628;9.058;2023-12-20T14:43:26;2.20;;;0.97;;
7410;SDS011;3747;48.628;9.058;2023-12-20T14:45:53;2.77;;;1.20;;
7410;SDS011;3747;48.628;9.058;2023-12-20T14:48:19;2.73;;;1.20;;
7410;SDS011;3747;48.628;9.058;2023-12-20T14:50:46;2.60;;;1.27;;
7410;SDS011;3747;48.628;9.058;2023-12-20T14:53:14;3.20;;;1.30;;
7410;SDS011;3747;48.628;9.058;2023-12-20T14:55:41;2.53;;;1.07;;
7410;SDS011;3747;48.628;9.058;2023-12-20T14:58:08;1.03;;;1.03;;
7410;SDS011;3747;48.628;9.058;2023-12-20T15:00:36;2.57;;;1.57;;
7410;SDS011;3747;48.628;9.058;2023-12-20T15:03:03;2.93;;;1.53;;
7410;SDS011;3747;48.628;9.058;2023-12-20T15:05:31;2.93;;;1.77;;
7410;SDS011;3747;48.628;9.058;2023-12-20T15:07:57;3.30;;;1.30;;
7410;SDS011;3747;48.628;9.058;2023-12-20T15:10:24;2.03;;;1.00;;
7410;SDS011;3747;48.628;9.058;2023-12-20T15:12:51;2.90;;;1.00;;
7410;SDS011;3747;48.628;9.058;2023-12-20T15:15:17;2.67;;;1.30;;
7410;SDS011;3747;48.628;9.058;2023-12-20T15:17:47;2.13;;;1.37;;
7410;SDS011;3747;48.628;9.058;2023-12-20T15:20:23;2.07;;;1.30;;
7410;SDS011;3747;48.628;9.058;2023-12-20T15:23:05;3.33;;;1.50;;
7410;SDS011;3747;48.628;9.058;2023-12-20T15:25:33;3.50;;;1.73;;